sensor_id;sensor_type;location;lat;lon;timestamp;pressure;altitude;pressure_sealevel;temperature;humidity
83733;BME280;73710;49.968;8.338;2024-03-02T05:06:24;51553.94;;;-141.83;100.00
83733;BME280;73710;49.968;8.338;2024-03-02T05:08:50;51582.00;;;-141.83;100.00
83733;BME280;73710;49.968;8.338;2024-03-02T05:11:15;51622.09;;;-141.83;100.00
83733;BME280;73710;49.968;8.338;2024-03-02T05:13:59;51567.97;;;-141.83;100.00
83733;BME280;73710;49.968;8.338;2024-03-02T05:16:25;51561.94;;;-141.83;100.00
83733;BME280;73710;49.968;8.338;2024-03-02T05:18:50;51614.06;;;-141.83;100.00
83733;BME280;73710;49.968;8.338;2024-03-02T05:21:15;51602.03;;;-141.83;100.00
83733;BME280;73710;49.968;8.338;2024-03-02T05:23:41;51612.06;;;-141.83;100.00
83733;BME280;73710;49.968;8.338;2024-03-02T05:26:06;51602.03;;;-141.83;100.00
83733;BME280;73710;49.968;8.338;2024-03-02T05:28:32;51610.06;;;-141.83;100.00
83733;BME280;73710;49.968;8.338;2024-03-02T05:30:57;51573.97;;;-141.83;100.00
83733;BME280;73710;49.968;8.338;2024-03-02T05:33:22;51594.03;;;-141.83;100.00
83733;BME280;73710;49.968;8.338;2024-03-02T05:35:48;51634.09;;;-141.83;100.00
83733;BME280;73710;49.968;8.338;2024-03-02T05:38:15;51634.09;;;-141.83;100.00
83733;BME280;73710;49.968;8.338;2024-03-02T05:40:40;51624.09;;;-141.83;100.00
83733;BME280;73710;49.968;8.338;2024-03-02T05:43:06;51582.00;;;-141.83;100.00
83733;BME280;73710;49.968;8.338;2024-03-02T05:45:31;51594.03;;;-141.83;100.00
83733;BME280;73710;49.968;8.338;2024-03-02T05:47:56;51604.03;;;-141.83;100.00
83733;BME280;73710;49.968;8.338;2024-03-02T05:50:22;51646.13;;;-141.83;100.00
83733;BME280;73710;49.968;8.338;2024-03-02T05:52:47;51578.00;;;-141.83;100.00
83733;BME280;73710;49.968;8.338;2024-03-02T05:55:13;51588.00;;;-141.83;100.00
83733;BME280;73710;49.968;8.338;2024-03-02T05:57:38;51578.00;;;-141.83;100.00
83733;BME280;73710;49.968;8.338;2024-03-02T06:00:11;51634.09;;;-141.83;100.00
83733;BME280;73710;49.968;8.338;2024-03-02T06:02:39;51594.03;;;-141.83;100.00
83733;BME280;73710;49.968;8.338;2024-03-02T06:05:06;51586.00;;;-141.83;100.00
83733;BME280;73710;49.968;8.338;2024-03-02T06:07:32;51632.09;;;-141.83;100.00
83733;BME280;73710;49.968;8.338;2024-03-02T06:09:57;51618.06;;;-141.83;100.00
83733;BME280;73710;49.968;8.338;2024-03-02T06:12:23;51642.13;;;-141.83;100.00
83733;BME280;73710;49.968;8.338;2024-03-02T06:14:49;51622.09;;;-141.83;100.00
83733;BME280;73710;49.968;8.338;2024-03-02T06:17:14;51622.09;;;-141.83;100.00
83733;BME280;73710;49.968;8.338;2024-03-02T06:19:39;51620.06;;;-141.83;100.00
83733;BME280;73710;49.968;8.338;2024-03-02T06:22:05;51594.03;;;-141.83;100.00
83733;BME280;73710;49.968;8.338;2024-03-02T06:24:31;51592.03;;;-141.83;100.00
83733;BME280;73710;49.968;8.338;2024-03-02T06:26:56;51662.16;;;-141.83;100.00
83733;BME280;73710;49.968;8.338;2024-03-02T06:29:21;51602.03;;;-141.83;100.00
83733;BME280;73710;49.968;8.338;2024-03-02T06:31:47;51668.19;;;-141.83;100.00
83733;BME280;73710;49.968;8.338;2024-03-02T06:34:12;51622.09;;;-141.83;100.00
83733;BME280;73710;49.968;8.338;2024-03-02T06:36:38;51596.03;;;-141.83;100.00
83733;BME280;73710;49.968;8.338;2024-03-02T06:39:03;51650.16;;;-141.83;100.00
83733;BME280;73710;49.968;8.338;2024-03-02T06:41:29;51620.06;;;-141.83;100.00
83733;BME280;73710;49.968;8.338;2024-03-02T06:43:54;51626.09;;;-141.83;100.00
83733;BME280;73710;49.968;8.338;2024-03-02T06:46:25;51614.06;;;-141.83;100.00
83733;BME280;73710;49.968;8.338;2024-03-02T06:48:50;51638.13;;;-141.83;100.00
83733;BME280;73710;49.968;8.338;2024-03-02T06:51:15;51626.09;;;-141.83;100.00
83733;BME280;73710;49.968;8.338;2024-03-02T06:53:41;51622.09;;;-141.83;100.00
83733;BME280;73710;49.968;8.338;2024-03-02T06:56:07;51614.06;;;-141.83;100.00
83733;BME280;73710;49.968;8.338;2024-03-02T06:58:33;51622.09;;;-141.83;100.00
83733;BME280;73710;49.968;8.338;2024-03-02T07:00:58;51648.13;;;-141.83;100.00
83733;BME280;73710;49.968;8.338;2024-03-02T07:03:25;51624.09;;;-141.83;100.00
83733;BME280;73710;49.968;8.338;2024-03-02T07:05:51;51654.16;;;-141.83;100.00
83733;BME280;73710;49.968;8.338;2024-03-02T07:08:16;51640.13;;;-141.83;100.00
83733;BME280;73710;49.968;8.338;2024-03-02T07:10:41;51634.09;;;-141.83;100.00
83733;BME280;73710;49.968;8.338;2024-03-02T07:13:07;51610.06;;;-141.83;100.00
83733;BME280;73710;49.968;8.338;2024-03-02T07:15:32;51652.16;;;-141.83;100.00
83733;BME280;73710;49.968;8.338;2024-03-02T07:18:03;51642.13;;;-141.83;100.00
83733;BME280;73710;49.968;8.338;2024-03-02T07:20:29;51650.16;;;-141.83;100.00
83733;BME280;73710;49.968;8.338;2024-03-02T07:22:54;51654.16;;;-141.83;100.00
83733;BME280;73710;49.968;8.338;2024-03-02T07:25:20;51654.16;;;-141.83;100.00
83733;BME280;73710;49.968;8.338;2024-03-02T07:27:45;51670.19;;;-141.83;100.00
83733;BME280;73710;49.968;8.338;2024-03-02T07:30:14;51642.13;;;-141.83;100.00
83733;BME280;73710;49.968;8.338;2024-03-02T07:32:41;51688.22;;;-141.83;100.00
83733;BME280;73710;49.968;8.338;2024-03-02T07:35:07;51674.19;;;-141.83;100.00
83733;BME280;73710;49.968;8.338;2024-03-02T07:37:32;51658.16;;;-141.83;100.00
83733;BME280;73710;49.968;8.338;2024-03-02T07:39:58;51694.25;;;-141.83;100.00
83733;BME280;73710;49.968;8.338;2024-03-02T07:42:23;51694.25;;;-141.83;100.00
83733;BME280;73710;49.968;8.338;2024-03-02T07:44:49;51682.22;;;-141.83;100.00
83733;BME280;73710;49.968;8.338;2024-03-02T07:47:14;51698.25;;;-141.83;100.00
83733;BME280;73710;49.968;8.338;2024-03-02T07:49:40;51632.09;;;-141.83;100.00
83733;BME280;73710;49.968;8.338;2024-03-02T07:52:05;51662.16;;;-141.83;97.30
83733;BME280;73710;49.968;8.338;2024-03-02T07:54:30;51690.22;;;-141.83;95.87
83733;BME280;73710;49.968;8.338;2024-03-02T07:56:56;51680.22;;;-141.83;94.50
83733;BME280;73710;49.968;8.338;2024-03-02T07:59:21;51700.25;;;-141.83;92.33
83733;BME280;73710;49.968;8.338;2024-03-02T08:01:48;51704.25;;;-141.83;92.30
83733;BME280;73710;49.968;8.338;2024-03-02T08:04:14;51694.25;;;-141.83;91.28
83733;BME280;73710;49.968;8.338;2024-03-02T08:06:39;51714.28;;;-141.83;91.21
83733;BME280;73710;49.968;8.338;2024-03-02T08:09:05;51700.25;;;-141.83;91.10
83733;BME280;73710;49.968;8.338;2024-03-02T08:11:35;51726.31;;;-141.83;89.16
83733;BME280;73710;49.968;8.338;2024-03-02T08:14:00;51734.31;;;-141.83;87.83
83733;BME280;73710;49.968;8.338;2024-03-02T08:16:25;51734.31;;;-141.83;86.88
83733;BME280;73710;49.968;8.338;2024-03-02T08:18:51;51702.25;;;-141.83;85.96
83733;BME280;73710;49.968;8.338;2024-03-02T08:21:17;51730.31;;;-141.83;85.81
83733;BME280;73710;49.968;8.338;2024-03-02T08:23:43;51730.31;;;-141.83;83.08
83733;BME280;73710;49.968;8.338;2024-03-02T08:26:09;51706.25;;;-141.83;83.05
83733;BME280;73710;49.968;8.338;2024-03-02T08:28:34;51734.31;;;-141.83;83.29
83733;BME280;73710;49.968;8.338;2024-03-02T08:31:00;51688.22;;;-141.83;81.92
83733;BME280;73710;49.968;8.338;2024-03-02T08:33:25;51714.28;;;-141.83;79.86
83733;BME280;73710;49.968;8.338;2024-03-02T08:35:51;51684.22;;;-141.83;78.34
83733;BME280;73710;49.968;8.338;2024-03-02T08:38:17;51740.34;;;-141.83;77.88
83733;BME280;73710;49.968;8.338;2024-03-02T08:40:43;51722.31;;;-141.83;77.37
83733;BME280;73710;49.968;8.338;2024-03-02T08:43:08;51742.34;;;-141.83;75.93
83733;BME280;73710;49.968;8.338;2024-03-02T08:45:34;51738.34;;;-141.83;74.69
83733;BME280;73710;49.968;8.338;2024-03-02T08:47:59;51732.31;;;-141.83;75.17
83733;BME280;73710;49.968;8.338;2024-03-02T08:50:25;51746.34;;;-141.83;75.97
83733;BME280;73710;49.968;8.338;2024-03-02T08:52:50;51768.41;;;-141.83;74.03
83733;BME280;73710;49.968;8.338;2024-03-02T08:55:16;51730.31;;;-141.83;73.25
83733;BME280;73710;49.968;8.338;2024-03-02T08:57:41;51714.28;;;-141.83;72.16
83733;BME280;73710;49.968;8.338;2024-03-02T09:00:07;51718.28;;;-141.83;72.00
83733;BME280;73710;49.968;8.338;2024-03-02T09:02:33;51744.34;;;-141.83;71.79
83733;BME280;73710;49.968;8.338;2024-03-02T09:04:59;51744.34;;;-141.83;72.79
83733;BME280;73710;49.968;8.338;2024-03-02T09:07:24;51726.31;;;-141.83;70.64
83733;BME280;73710;49.968;8.338;2024-03-02T09:09:50;51748.34;;;-141.83;70.13
83733;BME280;73710;49.968;8.338;2024-03-02T09:12:15;51738.34;;;-141.83;68.84
83733;BME280;73710;49.968;8.338;2024-03-02T09:14:41;51740.34;;;-141.83;69.13
83733;BME280;73710;49.968;8.338;2024-03-02T09:17:06;51748.34;;;-141.83;68.39
83733;BME280;73710;49.968;8.338;2024-03-02T09:19:32;51720.28;;;-141.83;68.85
83733;BME280;73710;49.968;8.338;2024-03-02T09:21:57;51750.38;;;-141.83;68.04
83733;BME280;73710;49.968;8.338;2024-03-02T09:24:24;51742.34;;;-141.83;67.40
83733;BME280;73710;49.968;8.338;2024-03-02T09:26:49;51744.34;;;-141.83;67.90
83733;BME280;73710;49.968;8.338;2024-03-02T09:29:15;51750.38;;;-141.83;67.53
83733;BME280;73710;49.968;8.338;2024-03-02T09:31:41;51742.34;;;-141.83;66.58
83733;BME280;73710;49.968;8.338;2024-03-02T09:34:06;51770.41;;;-141.83;66.62
83733;BME280;73710;49.968;8.338;2024-03-02T09:36:32;51722.31;;;-141.83;66.22
83733;BME280;73710;49.968;8.338;2024-03-02T09:38:57;51778.41;;;-141.83;64.80
83733;BME280;73710;49.968;8.338;2024-03-02T09:41:23;51742.34;;;-141.83;62.33
83733;BME280;73710;49.968;8.338;2024-03-02T09:43:48;51768.41;;;-141.83;60.66
83733;BME280;73710;49.968;8.338;2024-03-02T09:46:15;51754.38;;;-141.83;60.43
83733;BME280;73710;49.968;8.338;2024-03-02T09:48:40;51782.44;;;-141.83;60.95
83733;BME280;73710;49.968;8.338;2024-03-02T09:51:06;51788.44;;;-141.83;60.34
83733;BME280;73710;49.968;8.338;2024-03-02T09:53:33;51806.47;;;-141.83;57.88
83733;BME280;73710;49.968;8.338;2024-03-02T09:56:00;51774.41;;;-141.83;58.54
83733;BME280;73710;49.968;8.338;2024-03-02T09:58:25;51784.44;;;-141.83;59.27
83733;BME280;73710;49.968;8.338;2024-03-02T10:00:51;51766.41;;;-141.83;59.16
83733;BME280;73710;49.968;8.338;2024-03-02T10:03:18;51780.44;;;-141.83;58.36
83733;BME280;73710;49.968;8.338;2024-03-02T10:05:43;51754.38;;;-141.83;58.53
83733;BME280;73710;49.968;8.338;2024-03-02T10:08:09;51768.41;;;-141.83;58.54
83733;BME280;73710;49.968;8.338;2024-03-02T10:10:38;51754.38;;;-141.83;57.03
83733;BME280;73710;49.968;8.338;2024-03-02T10:13:11;51780.44;;;-141.83;57.32
83733;BME280;73710;49.968;8.338;2024-03-02T10:15:38;51798.47;;;-141.83;55.52
83733;BME280;73710;49.968;8.338;2024-03-02T10:18:08;51812.50;;;-141.83;54.88
83733;BME280;73710;49.968;8.338;2024-03-02T10:20:34;51780.44;;;-141.83;54.08
83733;BME280;73710;49.968;8.338;2024-03-02T10:23:10;51782.44;;;-141.83;54.17
83733;BME280;73710;49.968;8.338;2024-03-02T10:25:36;51776.41;;;-141.83;53.67
83733;BME280;73710;49.968;8.338;2024-03-02T10:28:01;51782.44;;;-141.83;54.45
83733;BME280;73710;49.968;8.338;2024-03-02T10:30:27;51770.41;;;-141.83;53.34
83733;BME280;73710;49.968;8.338;2024-03-02T10:32:54;51794.47;;;-141.83;53.43
83733;BME280;73710;49.968;8.338;2024-03-02T10:35:21;51782.44;;;-141.83;52.21
83733;BME280;73710;49.968;8.338;2024-03-02T10:37:48;51798.47;;;-141.83;52.54
83733;BME280;73710;49.968;8.338;2024-03-02T10:40:14;51818.50;;;-141.83;52.53
83733;BME280;73710;49.968;8.338;2024-03-02T10:42:41;51830.53;;;-141.83;52.78
83733;BME280;73710;49.968;8.338;2024-03-02T10:45:09;51750.38;;;-141.83;54.37
83733;BME280;73710;49.968;8.338;2024-03-02T10:47:36;51754.38;;;-141.83;53.92
83733;BME280;73710;49.968;8.338;2024-03-02T10:50:04;51798.47;;;-141.83;52.99
83733;BME280;73710;49.968;8.338;2024-03-02T10:52:31;51784.44;;;-141.83;53.43
83733;BME280;73710;49.968;8.338;2024-03-02T10:54:56;51792.44;;;-141.83;53.57
83733;BME280;73710;49.968;8.338;2024-03-02T10:57:24;51818.50;;;-141.83;52.92
83733;BME280;73710;49.968;8.338;2024-03-02T10:59:56;51780.44;;;-141.83;52.17
83733;BME280;73710;49.968;8.338;2024-03-02T11:02:23;51774.41;;;-141.83;52.57
83733;BME280;73710;49.968;8.338;2024-03-02T11:04:50;51832.53;;;-141.83;52.78
83733;BME280;73710;49.968;8.338;2024-03-02T11:07:18;51826.53;;;-141.83;49.66
83733;BME280;73710;49.968;8.338;2024-03-02T11:09:54;51790.44;;;-141.83;49.76
83733;BME280;73710;49.968;8.338;2024-03-02T11:12:29;51780.44;;;-141.83;50.11
83733;BME280;73710;49.968;8.338;2024-03-02T11:14:56;51814.50;;;-141.83;50.47
83733;BME280;73710;49.968;8.338;2024-03-02T11:17:21;51806.47;;;-141.83;49.88
83733;BME280;73710;49.968;8.338;2024-03-02T11:19:48;51810.50;;;-141.83;49.42
83733;BME280;73710;49.968;8.338;2024-03-02T11:22:15;51810.50;;;-141.83;48.81
83733;BME280;73710;49.968;8.338;2024-03-02T11:24:50;51820.50;;;-141.83;48.98
83733;BME280;73710;49.968;8.338;2024-03-02T11:33:05;51802.47;;;-141.83;46.62
83733;BME280;73710;49.968;8.338;2024-03-02T11:35:34;51790.44;;;-141.83;47.23
83733;BME280;73710;49.968;8.338;2024-03-02T11:38:01;51808.50;;;-141.83;47.18
83733;BME280;73710;49.968;8.338;2024-03-02T11:40:28;51802.47;;;-141.83;46.58
83733;BME280;73710;49.968;8.338;2024-03-02T11:42:54;51856.59;;;-141.83;45.94
83733;BME280;73710;49.968;8.338;2024-03-02T11:45:24;51838.56;;;-141.83;45.57
83733;BME280;73710;49.968;8.338;2024-03-02T11:47:57;51824.53;;;-141.83;45.78
83733;BME280;73710;49.968;8.338;2024-03-02T11:50:36;51830.53;;;-141.83;45.80
83733;BME280;73710;49.968;8.338;2024-03-02T11:53:06;51844.56;;;-141.83;45.17
83733;BME280;73710;49.968;8.338;2024-03-02T11:55:35;51830.53;;;-141.83;44.86
83733;BME280;73710;49.968;8.338;2024-03-02T11:58:03;51798.47;;;-141.83;45.28
83733;BME280;73710;49.968;8.338;2024-03-02T12:00:28;51836.56;;;-141.83;43.38
83733;BME280;73710;49.968;8.338;2024-03-02T12:03:04;51838.56;;;-141.83;43.60
83733;BME280;73710;49.968;8.338;2024-03-02T12:05:30;51856.59;;;-141.83;42.19
83733;BME280;73710;49.968;8.338;2024-03-02T12:07:57;51842.56;;;-141.83;42.78
83733;BME280;73710;49.968;8.338;2024-03-02T12:10:23;51834.53;;;-141.83;41.91
83733;BME280;73710;49.968;8.338;2024-03-02T12:12:57;51854.59;;;-141.83;41.22
83733;BME280;73710;49.968;8.338;2024-03-02T12:15:27;51870.63;;;-141.83;41.22
83733;BME280;73710;49.968;8.338;2024-03-02T12:17:54;51850.59;;;-141.83;38.45
83733;BME280;73710;49.968;8.338;2024-03-02T12:20:20;51864.63;;;-141.83;38.19
83733;BME280;73710;49.968;8.338;2024-03-02T12:22:45;51878.66;;;-141.83;38.13
83733;BME280;73710;49.968;8.338;2024-03-02T12:25:11;51864.63;;;-141.83;38.02
83733;BME280;73710;49.968;8.338;2024-03-02T12:27:38;51834.53;;;-141.83;36.40
83733;BME280;73710;49.968;8.338;2024-03-02T12:30:04;51834.53;;;-141.83;38.05
83733;BME280;73710;49.968;8.338;2024-03-02T12:32:29;51862.59;;;-141.83;38.79
83733;BME280;73710;49.968;8.338;2024-03-02T12:34:55;51860.59;;;-141.83;38.66
83733;BME280;73710;49.968;8.338;2024-03-02T12:37:20;51808.50;;;-141.83;37.90
83733;BME280;73710;49.968;8.338;2024-03-02T12:39:46;51820.50;;;-141.83;38.59
83733;BME280;73710;49.968;8.338;2024-03-02T12:42:12;51854.59;;;-141.83;38.92
83733;BME280;73710;49.968;8.338;2024-03-02T12:44:37;51852.59;;;-141.83;38.35
83733;BME280;73710;49.968;8.338;2024-03-02T12:47:02;51862.59;;;-141.83;37.97
83733;BME280;73710;49.968;8.338;2024-03-02T12:49:28;51834.53;;;-141.83;37.81
83733;BME280;73710;49.968;8.338;2024-03-02T12:51:55;51858.59;;;-141.83;37.40
83733;BME280;73710;49.968;8.338;2024-03-02T12:54:23;51868.63;;;-141.83;36.62
83733;BME280;73710;49.968;8.338;2024-03-02T12:56:50;51862.59;;;-141.83;36.63
83733;BME280;73710;49.968;8.338;2024-03-02T12:59:21;51858.59;;;-141.83;36.49
83733;BME280;73710;49.968;8.338;2024-03-02T13:01:54;51850.59;;;-141.83;36.20
83733;BME280;73710;49.968;8.338;2024-03-02T13:04:27;51844.56;;;-141.83;37.27
83733;BME280;73710;49.968;8.338;2024-03-02T13:06:54;51864.63;;;-141.83;38.14
83733;BME280;73710;49.968;8.338;2024-03-02T13:09:21;51868.63;;;-141.83;38.48
83733;BME280;73710;49.968;8.338;2024-03-02T13:11:46;51850.59;;;-141.83;38.19
83733;BME280;73710;49.968;8.338;2024-03-02T13:14:12;51856.59;;;-141.83;38.49
83733;BME280;73710;49.968;8.338;2024-03-02T13:16:41;51850.59;;;-141.83;37.50
83733;BME280;73710;49.968;8.338;2024-03-02T13:19:13;51876.63;;;-141.83;37.93
83733;BME280;73710;49.968;8.338;2024-03-02T13:21:38;51860.59;;;-141.83;37.51
83733;BME280;73710;49.968;8.338;2024-03-02T13:24:04;51862.59;;;-141.83;37.00
83733;BME280;73710;49.968;8.338;2024-03-02T13:26:30;51846.56;;;-141.83;36.11
83733;BME280;73710;49.968;8.338;2024-03-02T13:28:56;51862.59;;;-141.83;36.18
83733;BME280;73710;49.968;8.338;2024-03-02T13:31:21;51854.59;;;-141.83;36.37
83733;BME280;73710;49.968;8.338;2024-03-02T13:33:47;51866.63;;;-141.83;35.85
83733;BME280;73710;49.968;8.338;2024-03-02T13:36:12;51902.69;;;-141.83;35.35
83733;BME280;73710;49.968;8.338;2024-03-02T13:38:38;51854.59;;;-141.83;35.06
83733;BME280;73710;49.968;8.338;2024-03-02T13:41:03;51862.59;;;-141.83;35.96
83733;BME280;73710;49.968;8.338;2024-03-02T13:43:29;51866.63;;;-141.83;35.90
83733;BME280;73710;49.968;8.338;2024-03-02T13:45:57;51902.69;;;-141.83;35.07
83733;BME280;73710;49.968;8.338;2024-03-02T13:48:23;51890.66;;;-141.83;35.44
83733;BME280;73710;49.968;8.338;2024-03-02T13:50:51;51892.69;;;-141.83;35.07
83733;BME280;73710;49.968;8.338;2024-03-02T13:53:17;51906.72;;;-141.83;34.79
83733;BME280;73710;49.968;8.338;2024-03-02T13:55:43;51850.59;;;-141.83;34.76
83733;BME280;73710;49.968;8.338;2024-03-02T13:58:09;51858.59;;;-141.83;35.07
83733;BME280;73710;49.968;8.338;2024-03-02T14:00:34;51856.59;;;-141.83;36.73
83733;BME280;73710;49.968;8.338;2024-03-02T14:03:00;51860.59;;;-141.83;36.51
83733;BME280;73710;49.968;8.338;2024-03-02T14:05:26;51864.63;;;-141.83;36.42
83733;BME280;73710;49.968;8.338;2024-03-02T14:07:51;51846.56;;;-141.83;36.44
83733;BME280;73710;49.968;8.338;2024-03-02T14:10:16;51862.59;;;-141.83;36.20
83733;BME280;73710;49.968;8.338;2024-03-02T14:12:47;51852.59;;;-141.83;36.30
83733;BME280;73710;49.968;8.338;2024-03-02T14:15:12;51846.56;;;-141.83;36.11
83733;BME280;73710;49.968;8.338;2024-03-02T14:17:38;51834.53;;;-141.83;36.37
83733;BME280;73710;49.968;8.338;2024-03-02T14:20:04;51868.63;;;-141.83;36.13
83733;BME280;73710;49.968;8.338;2024-03-02T14:22:30;51852.59;;;-141.83;34.65
83733;BME280;73710;49.968;8.338;2024-03-02T14:24:56;51890.66;;;-141.83;33.53
83733;BME280;73710;49.968;8.338;2024-03-02T14:27:22;51912.72;;;-141.83;33.36
83733;BME280;73710;49.968;8.338;2024-03-02T14:29:47;51928.75;;;-141.83;32.98
83733;BME280;73710;49.968;8.338;2024-03-02T14:32:13;51912.72;;;-141.83;32.23
83733;BME280;73710;49.968;8.338;2024-03-02T14:34:38;51954.81;;;-141.83;31.06
83733;BME280;73710;49.968;8.338;2024-03-02T14:37:03;51974.84;;;-141.83;30.37
83733;BME280;73710;49.968;8.338;2024-03-02T14:39:29;51920.75;;;-141.83;30.28
83733;BME280;73710;49.968;8.338;2024-03-02T14:41:55;51944.78;;;-141.83;29.52
83733;BME280;73710;49.968;8.338;2024-03-02T14:44:21;52014.94;;;-141.83;28.78
83733;BME280;73710;49.968;8.338;2024-03-02T14:46:47;52037.00;;;-141.83;28.31
83733;BME280;73710;49.968;8.338;2024-03-02T14:49:13;52000.91;;;-141.83;27.60
83733;BME280;73710;49.968;8.338;2024-03-02T14:51:38;52069.06;;;-141.83;26.25
83733;BME280;73710;49.968;8.338;2024-03-02T14:54:04;52035.00;;;-141.83;26.84
83733;BME280;73710;49.968;8.338;2024-03-02T14:56:29;52002.91;;;-141.83;26.99
83733;BME280;73710;49.968;8.338;2024-03-02T14:58:55;52004.94;;;-141.83;27.71
83733;BME280;73710;49.968;8.338;2024-03-02T15:01:20;51942.78;;;-141.83;28.98
83733;BME280;73710;49.968;8.338;2024-03-02T15:03:48;51926.75;;;-141.83;29.98
83733;BME280;73710;49.968;8.338;2024-03-02T15:06:14;51904.69;;;-141.83;30.96
83733;BME280;73710;49.968;8.338;2024-03-02T15:08:39;51906.72;;;-141.83;31.75
83733;BME280;73710;49.968;8.338;2024-03-02T15:11:07;51874.63;;;-141.83;32.32
83733;BME280;73710;49.968;8.338;2024-03-02T15:13:32;51882.66;;;-141.83;32.40
83733;BME280;73710;49.968;8.338;2024-03-02T15:15:59;51890.66;;;-141.83;32.48
83733;BME280;73710;49.968;8.338;2024-03-02T15:18:24;51846.56;;;-141.83;32.56
83733;BME280;73710;49.968;8.338;2024-03-02T15:20:50;51872.63;;;-141.83;33.12
83733;BME280;73710;49.968;8.338;2024-03-02T15:23:15;51880.66;;;-141.83;33.18
83733;BME280;73710;49.968;8.338;2024-03-02T15:25:41;51906.72;;;-141.83;32.34
83733;BME280;73710;49.968;8.338;2024-03-02T15:28:06;51908.72;;;-141.83;32.71
83733;BME280;73710;49.968;8.338;2024-03-02T15:30:32;51858.59;;;-141.83;32.79
83733;BME280;73710;49.968;8.338;2024-03-02T15:32:57;51842.56;;;-141.83;33.95
83733;BME280;73710;49.968;8.338;2024-03-02T15:35:23;51838.56;;;-141.83;34.52
83733;BME280;73710;49.968;8.338;2024-03-02T15:37:48;51830.53;;;-141.83;35.48
83733;BME280;73710;49.968;8.338;2024-03-02T15:40:13;51832.53;;;-141.83;35.80
83733;BME280;73710;49.968;8.338;2024-03-02T15:42:42;51826.53;;;-141.83;36.46
83733;BME280;73710;49.968;8.338;2024-03-02T15:45:08;51816.50;;;-141.83;36.92
83733;BME280;73710;49.968;8.338;2024-03-02T15:47:33;51788.44;;;-141.83;37.40
83733;BME280;73710;49.968;8.338;2024-03-02T15:50:01;51804.47;;;-141.83;37.81
83733;BME280;73710;49.968;8.338;2024-03-02T15:52:27;51758.38;;;-141.83;38.66
83733;BME280;73710;49.968;8.338;2024-03-02T15:54:52;51790.44;;;-141.83;39.23
83733;BME280;73710;49.968;8.338;2024-03-02T15:57:19;51766.41;;;-141.83;40.08
83733;BME280;73710;49.968;8.338;2024-03-02T15:59:45;51778.41;;;-141.83;40.87
83733;BME280;73710;49.968;8.338;2024-03-02T16:02:10;51722.31;;;-141.83;41.57
83733;BME280;73710;49.968;8.338;2024-03-02T16:04:36;51748.34;;;-141.83;42.24
83733;BME280;73710;49.968;8.338;2024-03-02T16:07:01;51726.31;;;-141.83;43.40
83733;BME280;73710;49.968;8.338;2024-03-02T16:09:26;51742.34;;;-141.83;44.25
83733;BME280;73710;49.968;8.338;2024-03-02T16:11:52;51762.38;;;-141.83;44.51
83733;BME280;73710;49.968;8.338;2024-03-02T16:14:17;51748.34;;;-141.83;44.97
83733;BME280;73710;49.968;8.338;2024-03-02T16:16:43;51714.28;;;-141.83;45.57
83733;BME280;73710;49.968;8.338;2024-03-02T16:19:08;51710.28;;;-141.83;46.19
83733;BME280;73710;49.968;8.338;2024-03-02T16:21:34;51740.34;;;-141.83;46.70
83733;BME280;73710;49.968;8.338;2024-03-02T16:23:59;51728.31;;;-141.83;47.26
83733;BME280;73710;49.968;8.338;2024-03-02T16:26:25;51714.28;;;-141.83;47.84
83733;BME280;73710;49.968;8.338;2024-03-02T16:28:50;51734.31;;;-141.83;47.67
83733;BME280;73710;49.968;8.338;2024-03-02T16:31:16;51692.22;;;-141.83;48.11
83733;BME280;73710;49.968;8.338;2024-03-02T16:33:46;51706.25;;;-141.83;49.07
83733;BME280;73710;49.968;8.338;2024-03-02T16:36:11;51718.28;;;-141.83;49.20
83733;BME280;73710;49.968;8.338;2024-03-02T16:38:37;51714.28;;;-141.83;49.91
83733;BME280;73710;49.968;8.338;2024-03-02T16:41:03;51710.28;;;-141.83;50.51
83733;BME280;73710;49.968;8.338;2024-03-02T16:43:29;51684.22;;;-141.83;51.19
83733;BME280;73710;49.968;8.338;2024-03-02T16:45:54;51698.25;;;-141.83;52.82
83733;BME280;73710;49.968;8.338;2024-03-02T16:48:20;51706.25;;;-141.83;53.04
83733;BME280;73710;49.968;8.338;2024-03-02T16:50:45;51666.19;;;-141.83;53.70
83733;BME280;73710;49.968;8.338;2024-03-02T16:53:10;51698.25;;;-141.83;54.84
83733;BME280;73710;49.968;8.338;2024-03-02T16:55:36;51656.16;;;-141.83;55.00
83733;BME280;73710;49.968;8.338;2024-03-02T16:58:01;51694.25;;;-141.83;55.29
83733;BME280;73710;49.968;8.338;2024-03-02T17:00:27;51686.22;;;-141.83;55.36
83733;BME280;73710;49.968;8.338;2024-03-02T17:02:52;51726.31;;;-141.83;56.65
83733;BME280;73710;49.968;8.338;2024-03-02T17:05:18;51694.25;;;-141.83;56.24
83733;BME280;73710;49.968;8.338;2024-03-02T17:07:47;51690.22;;;-141.83;56.40
83733;BME280;73710;49.968;8.338;2024-03-02T17:10:13;51716.28;;;-141.83;57.47
83733;BME280;73710;49.968;8.338;2024-03-02T17:12:38;51654.16;;;-141.83;57.89
83733;BME280;73710;49.968;8.338;2024-03-02T17:15:04;51656.16;;;-141.83;58.18
83733;BME280;73710;49.968;8.338;2024-03-02T17:17:30;51662.16;;;-141.83;58.47
83733;BME280;73710;49.968;8.338;2024-03-02T17:19:57;51698.25;;;-141.83;59.86
83733;BME280;73710;49.968;8.338;2024-03-02T17:22:22;51672.19;;;-141.83;59.72
83733;BME280;73710;49.968;8.338;2024-03-02T17:24:50;51672.19;;;-141.83;59.61
83733;BME280;73710;49.968;8.338;2024-03-02T17:27:17;51690.22;;;-141.83;60.43
83733;BME280;73710;49.968;8.338;2024-03-02T17:29:43;51682.22;;;-141.83;60.15
83733;BME280;73710;49.968;8.338;2024-03-02T17:32:09;51678.19;;;-141.83;60.68
83733;BME280;73710;49.968;8.338;2024-03-02T17:34:34;51700.25;;;-141.83;60.60
83733;BME280;73710;49.968;8.338;2024-03-02T17:36:59;51678.19;;;-141.83;60.05
83733;BME280;73710;49.968;8.338;2024-03-02T17:39:25;51706.25;;;-141.83;60.49
83733;BME280;73710;49.968;8.338;2024-03-02T17:41:51;51688.22;;;-141.83;59.12
83733;BME280;73710;49.968;8.338;2024-03-02T17:44:16;51710.28;;;-141.83;59.64